Time;durP1;ratioP1;P1;durP2;ratioP2;P2;SDS_P1;SDS_P2;PMS_P1;PMS_P2;Temp;Humidity;BMP_temperature;BMP_pressure;BME280_temperature;BME280_humidity;BME280_pressure;Samples;Min_cycle;Max_cycle;Signal;HPM_P1;HPM_P2
2022/02/08 00:02:01;;;;;;;18.60;10.43;;;28.60;74.80;;;;;;5126462;28;20030;-49
2022/02/08 00:04:29;;;;;;;15.82;10.02;;;28.60;74.70;;;;;;5126614;28;20184;-52
2022/02/08 00:06:57;;;;;;;16.25;10.20;;;28.60;74.50;;;;;;5126620;28;20023;-46
2022/02/08 00:09:25;;;;;;;12.77;9.30;;;28.60;74.40;;;;;;5126505;28;20090;-50
2022/02/08 00:11:51;;;;;;;12.35;9.32;;;28.60;74.30;;;;;;5126591;28;20097;-59
2022/02/08 00:14:18;;;;;;;14.82;9.48;;;28.60;74.20;;;;;;5126681;28;20092;-51
2022/02/08 00:16:45;;;;;;;24.88;9.75;;;28.60;74.00;;;;;;5126372;28;20202;-52
2022/02/08 00:19:11;;;;;;;14.05;9.38;;;28.60;74.00;;;;;;5133066;27;20026;-51
2022/02/08 00:21:38;;;;;;;15.73;8.90;;;28.60;74.00;;;;;;5130640;27;20313;-52
2022/02/08 00:24:05;;;;;;;13.15;8.48;;;28.60;73.70;;;;;;5125498;28;20017;-50
2022/02/08 00:26:32;;;;;;;14.00;8.43;;;28.60;73.50;;;;;;5131584;27;20087;-53
2022/02/08 00:28:58;;;;;;;16.85;9.10;;;28.60;73.50;;;;;;5146150;27;20018;-54
2022/02/08 00:31:25;;;;;;;14.88;8.80;;;28.60;73.40;;;;;;5146747;27;20042;-48
2022/02/08 00:33:52;;;;;;;13.00;8.82;;;28.60;73.20;;;;;;5126154;28;20046;-52
2022/02/08 00:36:18;;;;;;;11.90;8.48;;;28.60;73.00;;;;;;5124864;28;20192;-49
2022/02/08 00:38:45;;;;;;;14.80;8.63;;;28.60;73.00;;;;;;5126542;28;20359;-49
2022/02/08 00:41:12;;;;;;;13.88;8.27;;;28.60;72.50;;;;;;5126716;28;20064;-48
2022/02/08 00:46:20;;;;;;;17.15;9.10;;;28.60;72.80;;;;;;5126269;28;20019;-51
2022/02/08 00:48:59;;;;;;;16.65;10.05;;;28.60;72.80;;;;;;5125401;28;20018;-54
2022/02/08 00:51:29;;;;;;;16.15;9.90;;;28.60;73.00;;;;;;5125920;28;20027;-50
2022/02/08 00:53:56;;;;;;;16.63;9.98;;;28.50;73.40;;;;;;5125638;28;20338;-49
2022/02/08 00:56:24;;;;;;;18.38;10.50;;;28.50;73.20;;;;;;5125738;28;20028;-50
2022/02/08 00:58:50;;;;;;;15.27;9.82;;;28.50;73.10;;;;;;5125566;28;20077;-47
2022/02/08 01:01:17;;;;;;;13.52;9.68;;;28.50;73.50;;;;;;5125947;28;20024;-50
2022/02/08 01:03:44;;;;;;;13.43;9.70;;;28.50;73.80;;;;;;5125098;28;20259;-49
2022/02/08 01:06:10;;;;;;;17.35;9.30;;;28.50;73.40;;;;;;5125659;28;20027;-51
2022/02/08 01:08:40;;;;;;;15.05;10.10;;;28.50;73.10;;;;;;5107061;28;20043;-51
2022/02/08 01:11:10;;;;;;;16.88;9.63;;;28.50;73.50;;;;;;5124907;28;20040;-54
2022/02/08 01:13:38;;;;;;;16.55;9.82;;;28.50;73.30;;;;;;5107036;28;20023;-51
2022/02/08 01:16:06;;;;;;;12.88;10.75;;;28.50;72.80;;;;;;5125412;28;20027;-47
2022/02/08 01:18:38;;;;;;;15.55;9.93;;;28.40;73.00;;;;;;5125129;28;20024;-55
2022/02/08 01:21:05;;;;;;;11.40;9.88;;;28.40;73.50;;;;;;5125543;28;20035;-50
2022/02/08 01:23:32;;;;;;;17.83;10.48;;;28.40;73.50;;;;;;5125156;27;20039;-48
2022/02/08 01:26:05;;;;;;;15.90;10.60;;;28.40;73.50;;;;;;5136046;27;20031;-48
2022/02/08 01:31:01;;;;;;;15.90;10.38;;;28.40;73.80;;;;;;5124902;28;20237;-51
2022/02/08 01:49:29;;;;;;;18.35;10.65;;;28.40;74.00;;;;;;5145369;27;20035;-49
2022/02/08 01:51:59;;;;;;;16.30;9.43;;;28.40;74.00;;;;;;5145163;28;20019;-54
2022/02/08 01:54:27;;;;;;;16.23;9.23;;;28.40;73.50;;;;;;5145252;27;20280;-48
2022/02/08 01:56:54;;;;;;;13.43;9.02;;;28.30;73.90;;;;;;5145108;27;20363;-48
2022/02/08 01:59:23;;;;;;;12.60;8.85;;;28.30;74.20;;;;;;5144695;28;20015;-48
2022/02/08 02:01:50;;;;;;;16.23;9.27;;;28.30;73.90;;;;;;5144975;28;20071;-54
2022/02/08 02:04:17;;;;;;;12.90;9.43;;;28.30;73.90;;;;;;5145047;28;20027;-50
2022/02/08 02:06:43;;;;;;;12.50;9.13;;;28.30;73.60;;;;;;5144847;28;20307;-49
2022/02/08 02:09:10;;;;;;;19.00;8.70;;;28.30;73.50;;;;;;5143162;28;20015;-54
2022/02/08 02:11:37;;;;;;;12.52;8.80;;;28.30;73.30;;;;;;5127110;28;20034;-49
2022/02/08 02:14:03;;;;;;;12.75;8.15;;;28.30;73.00;;;;;;5131851;28;20035;-51
2022/02/08 02:19:32;;;;;;;10.32;7.75;;;28.30;71.90;;;;;;5061531;28;20017;-50
2022/02/08 02:22:02;;;;;;;40.13;35.90;;;28.30;71.80;;;;;;5127910;28;20086;-51
2022/02/08 02:24:29;;;;;;;29.48;26.30;;;28.30;71.20;;;;;;5144516;28;20019;-53
2022/02/08 02:27:05;;;;;;;24.98;22.65;;;28.30;70.80;;;;;;5144971;28;20035;-54
2022/02/08 02:29:33;;;;;;;25.90;22.98;;;28.20;70.80;;;;;;5114021;28;20219;-51
2022/02/08 02:32:01;;;;;;;20.52;14.02;;;28.30;71.00;;;;;;5124103;28;20016;-55
2022/02/08 02:34:28;;;;;;;18.58;12.23;;;28.30;71.10;;;;;;5113736;28;20203;-51
2022/02/08 02:36:55;;;;;;;16.92;9.40;;;28.30;70.80;;;;;;5106683;28;20241;-49
2022/02/08 02:39:28;;;;;;;13.68;9.40;;;28.30;70.70;;;;;;5134415;27;20207;-52
2022/02/08 02:41:55;;;;;;;18.63;9.10;;;28.30;70.50;;;;;;5146023;28;20011;-56
2022/02/08 02:44:24;;;;;;;16.98;8.52;;;28.20;70.70;;;;;;5126483;28;20031;-53
2022/02/08 02:46:51;;;;;;;18.38;8.77;;;28.20;70.60;;;;;;5145828;27;20091;-52
2022/02/08 02:49:19;;;;;;;13.18;8.48;;;28.20;70.80;;;;;;5147331;27;20168;-52
2022/02/08 02:51:46;;;;;;;14.63;9.63;;;28.20;71.00;;;;;;5120729;28;20023;-47
2022/02/08 02:54:21;;;;;;;15.63;9.02;;;28.20;71.10;;;;;;5136313;27;20065;-50
2022/02/08 02:56:49;;;;;;;12.45;9.02;;;28.20;71.90;;;;;;5148476;27;20031;-49
2022/02/08 02:59:18;;;;;;;14.65;8.23;;;28.20;71.30;;;;;;5148123;27;20003;-50
2022/02/08 03:20:37;;;;;;;19.08;13.80;;;28.10;70.60;;;;;;5148550;27;20034;-48
2022/02/08 03:23:04;;;;;;;14.43;10.52;;;28.10;70.30;;;;;;5147742;27;20018;-52
2022/02/08 03:25:30;;;;;;;12.82;9.82;;;28.10;70.30;;;;;;5147448;27;20068;-47
2022/02/08 03:27:57;;;;;;;12.82;9.85;;;28.10;70.40;;;;;;5147978;27;20078;-50
2022/02/08 03:30:24;;;;;;;8.82;7.93;;;28.10;70.30;;;;;;5148011;27;20023;-45
2022/02/08 03:32:51;;;;;;;14.57;8.50;;;28.10;70.60;;;;;;5147638;27;20026;-47
2022/02/08 03:35:17;;;;;;;12.43;7.45;;;28.00;70.20;;;;;;5129193;27;20289;-46
2022/02/08 03:37:54;;;;;;;12.45;8.02;;;28.00;70.50;;;;;;5147640;27;20023;-46
2022/02/08 03:40:55;;;;;;;10.02;7.35;;;28.00;71.00;;;;;;5147101;27;20054;-49
2022/02/08 03:45:50;;;;;;;12.93;7.75;;;27.90;70.60;;;;;;5147784;27;20023;-45
2022/02/08 03:48:20;;;;;;;11.25;7.72;;;27.90;71.20;;;;;;5147358;27;20236;-54
2022/02/08 03:51:06;;;;;;;13.27;7.88;;;27.90;71.30;;;;;;5147852;27;20023;-45
2022/02/08 03:53:32;;;;;;;11.30;7.82;;;27.90;71.80;;;;;;5147152;27;20101;-45
2022/02/08 03:55:59;;;;;;;11.02;7.57;;;27.90;71.20;;;;;;5147713;27;20027;-50
2022/02/08 03:58:25;;;;;;;10.15;7.70;;;27.90;70.60;;;;;;5147055;27;20078;-51
2022/02/08 04:01:26;;;;;;;9.32;7.88;;;27.80;70.80;;;;;;5146952;27;20078;-49
2022/02/08 04:03:47;;;;;;;9.32;7.13;;;27.80;71.10;;;;;;5146922;27;20015;-48
2022/02/08 04:06:14;;;;;;;10.90;7.57;;;27.80;70.50;;;;;;5147474;27;20031;-46
2022/02/08 04:08:41;;;;;;;10.52;7.38;;;27.80;71.30;;;;;;5128380;27;20023;-48
2022/02/08 04:11:08;;;;;;;9.60;7.30;;;27.80;71.30;;;;;;5146669;27;20063;-46
2022/02/08 04:13:46;;;;;;;16.20;7.53;;;27.80;71.30;;;;;;5147195;27;20016;-52
2022/02/08 04:16:33;;;;;;;11.32;7.57;;;27.80;72.00;;;;;;5147408;27;20053;-51
2022/02/08 04:19:18;;;;;;;10.75;7.03;;;27.70;71.90;;;;;;5146960;27;20037;-51
2022/02/08 04:33:13;;;;;;;18.10;9.88;;;27.70;72.50;;;;;;5083346;28;20031;-45
2022/02/08 04:41:09;;;;;;;9.55;7.55;;;27.70;71.80;;;;;;5146662;27;20311;-44
2022/02/08 04:46:39;;;;;;;10.43;7.57;;;27.70;71.40;;;;;;5114217;27;20326;-45
2022/02/08 04:49:06;;;;;;;13.15;7.50;;;27.70;70.60;;;;;;5146519;27;20030;-46
2022/02/08 04:51:41;;;;;;;12.68;7.25;;;27.70;70.10;;;;;;5146217;27;20023;-46
2022/02/08 04:54:21;;;;;;;47.53;42.92;;;27.70;70.10;;;;;;5145706;27;20086;-44
2022/02/08 05:47:42;;;;;;;9.07;7.05;;;27.80;70.00;;;;;;5144815;27;20241;-47
2022/02/08 05:50:11;;;;;;;8.18;6.72;;;27.80;70.00;;;;;;5145756;27;20027;-52
2022/02/08 05:55:22;;;;;;;8.38;6.97;;;27.80;69.90;;;;;;5145588;27;20322;-45
2022/02/08 05:57:51;;;;;;;14.57;6.80;;;27.80;69.90;;;;;;5145472;27;20023;-41
2022/02/08 06:00:19;;;;;;;8.43;6.50;;;27.80;69.80;;;;;;5145490;28;20091;-50
2022/02/08 06:02:49;;;;;;;9.02;6.78;;;27.80;69.80;;;;;;5145240;28;20030;-47
2022/02/08 06:05:19;;;;;;;8.23;6.90;;;27.80;69.80;;;;;;5145275;28;20027;-46
2022/02/08 06:07:46;;;;;;;9.70;6.65;;;27.80;69.90;;;;;;5145475;28;20044;-46
2022/02/08 06:10:12;;;;;;;10.32;6.60;;;27.80;69.90;;;;;;5145530;28;20027;-42
2022/02/08 06:12:44;;;;;;;7.95;6.80;;;27.80;70.00;;;;;;5145577;28;20023;-42
2022/02/08 06:15:13;;;;;;;9.82;6.82;;;27.80;70.20;;;;;;5145657;28;20088;-53
2022/02/08 06:17:40;;;;;;;7.30;6.22;;;27.80;70.30;;;;;;5145365;28;20086;-49
2022/02/08 06:20:08;;;;;;;8.57;6.78;;;27.80;70.10;;;;;;5145490;28;20031;-48
2022/02/08 06:22:36;;;;;;;9.45;6.28;;;27.80;70.10;;;;;;5148050;27;20037;-43
2022/02/08 06:25:07;;;;;;;8.90;6.50;;;27.80;70.10;;;;;;5149280;27;20104;-47
2022/02/08 06:27:33;;;;;;;9.27;6.40;;;27.80;70.00;;;;;;5149711;27;20016;-49
2022/02/08 06:30:01;;;;;;;9.63;6.22;;;27.80;70.30;;;;;;5149206;27;20233;-45
2022/02/08 06:32:28;;;;;;;7.25;6.47;;;27.80;70.30;;;;;;5149560;27;20102;-44
2022/02/08 06:34:57;;;;;;;6.78;5.95;;;27.80;70.60;;;;;;5149157;27;20026;-46
2022/02/08 06:37:26;;;;;;;9.23;6.47;;;27.80;70.50;;;;;;5149520;27;20207;-52
2022/02/08 06:39:53;;;;;;;8.93;6.22;;;27.80;70.80;;;;;;5149506;27;20070;-51
2022/02/08 06:42:19;;;;;;;8.18;6.13;;;27.80;70.80;;;;;;5149252;27;20026;-47
2022/02/08 06:44:46;;;;;;;8.43;6.63;;;27.80;71.00;;;;;;5149124;27;20058;-45
2022/02/08 06:47:12;;;;;;;8.63;6.30;;;27.80;71.00;;;;;;5149321;27;20263;-46
2022/02/08 06:49:39;;;;;;;7.03;6.20;;;27.80;70.90;;;;;;5149156;27;20035;-47
2022/02/08 06:52:06;;;;;;;8.90;6.90;;;27.80;70.80;;;;;;5148004;27;20037;-42
2022/02/08 06:54:33;;;;;;;7.28;6.38;;;27.80;70.70;;;;;;5149109;27;20026;-48
2022/02/08 06:57:00;;;;;;;12.35;6.72;;;27.80;70.90;;;;;;5149095;27;20377;-44
2022/02/08 06:59:30;;;;;;;10.55;7.10;;;27.70;70.90;;;;;;5148536;27;20027;-44
2022/02/08 07:01:56;;;;;;;13.90;6.55;;;27.80;71.20;;;;;;5149130;27;20019;-47
2022/02/08 07:04:23;;;;;;;14.38;6.60;;;27.70;71.00;;;;;;5149106;27;20033;-45
2022/02/08 07:06:49;;;;;;;27.02;7.88;;;27.70;71.20;;;;;;5148793;27;20011;-46
2022/02/08 07:09:16;;;;;;;48.42;9.40;;;27.70;71.40;;;;;;5148773;27;20152;-49
2022/02/08 07:11:46;;;;;;;24.60;8.93;;;27.70;71.80;;;;;;5148795;27;20132;-49
2022/02/08 07:14:14;;;;;;;24.85;8.35;;;27.70;72.00;;;;;;5148759;27;20023;-47
2022/02/08 07:16:40;;;;;;;16.05;7.75;;;27.80;72.30;;;;;;5148499;27;20094;-48
2022/02/08 07:19:07;;;;;;;17.65;7.85;;;27.70;73.30;;;;;;5148167;27;20015;-49
2022/02/08 07:21:36;;;;;;;12.63;6.80;;;27.80;73.90;;;;;;5148561;27;20023;-44
2022/02/08 07:24:03;;;;;;;16.45;7.80;;;27.70;74.70;;;;;;5148653;27;20023;-42
2022/02/08 07:26:29;;;;;;;13.80;7.63;;;27.70;75.20;;;;;;5148726;27;20058;-43
2022/02/08 07:28:56;;;;;;;16.30;8.15;;;27.70;75.90;;;;;;5148458;27;20038;-50
2022/02/08 07:31:27;;;;;;;12.30;7.47;;;27.70;76.50;;;;;;5148996;27;20050;-44
2022/02/08 07:33:58;;;;;;;10.27;7.28;;;27.70;76.90;;;;;;5148107;27;20345;-45
2022/02/08 07:36:47;;;;;;;7.72;6.78;;;27.70;77.20;;;;;;5148586;27;20031;-41
2022/02/08 07:39:24;;;;;;;10.50;7.60;;;27.70;77.40;;;;;;5147716;27;20037;-44
2022/02/08 07:41:50;;;;;;;10.00;7.47;;;27.70;77.90;;;;;;5148491;27;20086;-48
2022/02/08 07:44:17;;;;;;;11.95;7.13;;;27.70;78.20;;;;;;5148294;27;20060;-48
2022/02/08 07:46:43;;;;;;;10.82;7.72;;;27.60;78.20;;;;;;5148174;27;20015;-49
2022/02/08 07:49:13;;;;;;;13.07;7.43;;;27.70;78.70;;;;;;5148580;27;20286;-42
2022/02/08 07:51:41;;;;;;;13.02;8.15;;;27.70;79.10;;;;;;5148307;27;20023;-47
2022/02/08 07:54:08;;;;;;;10.30;7.57;;;27.60;78.90;;;;;;5147417;27;20058;-46
2022/02/08 07:56:34;;;;;;;13.00;7.70;;;27.60;79.20;;;;;;5148228;27;20020;-47
2022/02/08 07:59:01;;;;;;;10.38;8.45;;;27.60;79.40;;;;;;5147672;27;20011;-47
2022/02/08 08:01:28;;;;;;;10.77;7.88;;;27.60;79.90;;;;;;5148147;27;20031;-51
2022/02/08 08:03:54;;;;;;;10.02;8.05;;;27.60;80.10;;;;;;5147685;27;20043;-42
2022/02/08 08:06:21;;;;;;;11.10;8.63;;;27.60;80.10;;;;;;5148189;27;20034;-45
2022/02/08 08:08:47;;;;;;;10.30;8.70;;;27.60;80.90;;;;;;5147161;27;20045;-42
2022/02/08 08:11:19;;;;;;;11.38;8.70;;;27.60;81.30;;;;;;5147120;27;20044;-47
2022/02/08 08:14:00;;;;;;;10.52;8.85;;;27.60;81.30;;;;;;5147540;27;20023;-44
2022/02/08 08:19:50;;;;;;;13.20;7.82;;;27.50;80.90;;;;;;5147180;27;20056;-43
2022/02/08 08:21:55;;;;;;;9.48;7.95;;;27.50;80.80;;;;;;5138514;27;20070;-47
2022/02/08 08:24:22;;;;;;;9.98;7.70;;;27.40;80.70;;;;;;5146893;27;20311;-52
2022/02/08 08:26:48;;;;;;;8.80;7.90;;;27.50;80.80;;;;;;5146818;27;20312;-46
2022/02/08 08:29:15;;;;;;;10.25;7.80;;;27.50;80.80;;;;;;5147096;27;20056;-44
2022/02/08 08:31:41;;;;;;;10.70;8.07;;;27.50;80.60;;;;;;5147034;27;20019;-46
2022/02/08 08:34:09;;;;;;;11.98;7.30;;;27.50;80.40;;;;;;5147073;27;20040;-44
2022/02/08 08:36:36;;;;;;;8.30;7.38;;;27.40;80.00;;;;;;5147005;27;20256;-56
2022/02/08 08:39:05;;;;;;;8.85;7.28;;;27.40;79.80;;;;;;5147068;27;20015;-45
2022/02/08 08:52:01;;;;;;;9.73;7.57;;;27.40;78.90;;;;;;5147057;27;20007;-53
2022/02/08 08:54:27;;;;;;;13.82;7.97;;;27.30;78.80;;;;;;5147287;27;20151;-49
2022/02/08 08:56:54;;;;;;;9.10;8.13;;;27.30;78.70;;;;;;5146714;27;20011;-51
2022/02/08 08:59:22;;;;;;;15.32;7.78;;;27.30;78.70;;;;;;5146490;27;20015;-49
2022/02/08 09:01:49;;;;;;;10.60;8.30;;;27.30;78.70;;;;;;5146266;27;20015;-44
2022/02/08 09:04:18;;;;;;;10.63;8.50;;;27.30;78.70;;;;;;5146505;27;20022;-47
2022/02/08 09:06:47;;;;;;;11.85;8.40;;;27.30;78.60;;;;;;5146278;27;20019;-52
2022/02/08 09:09:17;;;;;;;9.07;8.18;;;27.20;78.50;;;;;;5146513;27;20191;-46
2022/02/08 09:20:05;;;;;;;10.68;7.45;;;27.20;78.10;;;;;;5146798;27;20060;-46
2022/02/08 09:22:50;;;;;;;8.80;7.35;;;27.20;77.90;;;;;;5145883;27;20015;-46
2022/02/08 09:28:41;;;;;;;7.53;6.80;;;27.20;77.20;;;;;;5146119;27;20008;-45
2022/02/08 09:30:36;;;;;;;9.40;7.10;;;27.20;76.60;;;;;;5131549;27;20110;-52
2022/02/08 09:33:03;;;;;;;8.27;6.72;;;27.20;76.60;;;;;;5146020;27;20022;-45
2022/02/08 09:35:29;;;;;;;8.07;6.38;;;27.20;76.30;;;;;;5146413;27;20355;-52
2022/02/08 09:37:56;;;;;;;8.88;6.63;;;27.10;75.60;;;;;;5145722;27;20015;-54
2022/02/08 09:40:24;;;;;;;7.45;6.43;;;27.10;75.80;;;;;;5145995;27;20034;-44
2022/02/08 09:42:53;;;;;;;7.78;6.97;;;27.20;75.70;;;;;;5146034;27;20055;-52
2022/02/08 09:45:22;;;;;;;7.43;6.55;;;27.20;75.70;;;;;;5146004;27;20072;-53
2022/02/08 09:50:24;;;;;;;7.95;6.15;;;27.20;75.40;;;;;;5145945;27;20047;-50
2022/02/08 09:52:54;;;;;;;9.55;6.38;;;27.20;75.50;;;;;;5145512;27;20011;-46
2022/02/08 09:55:22;;;;;;;10.15;6.20;;;27.20;75.40;;;;;;5145399;27;20027;-47
2022/02/08 09:57:50;;;;;;;9.38;6.13;;;27.20;75.40;;;;;;5145315;27;20037;-45
2022/02/08 10:00:19;;;;;;;8.00;6.43;;;27.20;75.40;;;;;;5145275;27;20042;-50
2022/02/08 10:02:46;;;;;;;9.75;6.00;;;27.20;75.60;;;;;;5145607;28;20038;-45
2022/02/08 10:05:13;;;;;;;7.13;6.05;;;27.20;75.70;;;;;;5145229;28;20023;-42
2022/02/08 10:07:41;;;;;;;8.10;6.40;;;27.20;75.80;;;;;;5145548;28;20019;-46
2022/02/08 10:10:22;;;;;;;7.03;6.20;;;27.20;76.00;;;;;;5145313;28;20072;-48
2022/02/08 10:21:46;;;;;;;6.82;6.03;;;27.20;76.20;;;;;;5129933;28;20034;-52
2022/02/08 10:24:18;;;;;;;6.70;6.03;;;27.10;76.20;;;;;;5145103;28;20061;-48
2022/02/08 10:29:59;;;;;;;7.88;6.70;;;27.20;76.20;;;;;;5145229;28;20027;-47
2022/02/08 10:38:07;;;;;;;9.48;6.53;;;27.10;76.40;;;;;;5144769;28;20380;-54
2022/02/08 10:40:38;;;;;;;12.75;6.75;;;27.10;76.30;;;;;;5145267;28;20023;-60
2022/02/08 10:43:08;;;;;;;8.05;6.63;;;27.10;76.30;;;;;;5144985;28;20031;-58
2022/02/08 10:45:41;;;;;;;7.22;6.53;;;27.10;75.90;;;;;;5145192;28;20019;-53
2022/02/08 10:48:10;;;;;;;8.20;6.30;;;27.10;75.70;;;;;;5144936;28;20015;-52
2022/02/08 10:50:52;;;;;;;10.68;6.20;;;27.10;75.50;;;;;;5145266;28;20058;-51
2022/02/08 10:53:20;;;;;;;6.53;5.93;;;27.10;75.40;;;;;;5144931;28;20015;-50
2022/02/08 10:56:00;;;;;;;10.77;6.50;;;27.10;75.20;;;;;;5145215;28;20027;-49
2022/02/08 10:58:35;;;;;;;9.82;6.25;;;27.10;75.00;;;;;;5133028;28;20015;-44
2022/02/08 11:06:36;;;;;;;9.18;6.75;;;27.20;74.80;;;;;;5144917;28;20047;-52
2022/02/08 11:14:58;;;;;;;26.63;17.25;;;27.10;74.70;;;;;;5148473;27;20023;-47
2022/02/08 11:20:12;;;;;;;48.72;35.47;;;27.10;75.20;;;;;;5148228;27;20198;-48
2022/02/08 11:23:00;;;;;;;35.30;29.60;;;27.10;75.00;;;;;;5147921;27;20102;-46
2022/02/08 11:28:22;;;;;;;20.35;16.20;;;27.10;75.20;;;;;;5148009;27;20030;-48
2022/02/08 11:31:34;;;;;;;16.65;13.23;;;27.10;75.30;;;;;;5148058;27;20027;-46
2022/02/08 11:50:47;;;;;;;12.75;7.60;;;27.00;78.00;;;;;;5147668;27;20116;-46
2022/02/08 11:58:58;;;;;;;14.35;8.40;;;27.00;78.50;;;;;;5146492;27;20011;-44
2022/02/08 12:01:46;;;;;;;13.93;8.45;;;27.10;79.00;;;;;;5147758;27;20019;-53
2022/02/08 12:32:31;;;;;;;24.08;10.48;;;27.10;80.60;;;;;;5122741;28;20050;-47
2022/02/08 12:35:19;;;;;;;28.25;10.02;;;27.20;80.70;;;;;;5126138;28;20196;-49
2022/02/08 12:52:52;;;;;;;14.35;9.88;;;27.10;81.30;;;;;;5125512;28;20083;-50
2022/02/08 13:02:39;;;;;;;10.68;9.57;;;27.10;82.10;;;;;;5125242;28;20026;-50
2022/02/08 14:03:36;;;;;;;13.00;10.85;;;27.10;84.60;;;;;;5125145;28;20019;-52
2022/02/08 14:06:11;;;;;;;18.20;11.48;;;27.10;84.80;;;;;;5124854;28;20023;-49
2022/02/08 14:08:59;;;;;;;16.90;11.07;;;27.10;84.90;;;;;;5124481;28;20016;-54
2022/02/08 14:19:29;;;;;;;17.42;14.27;;;27.10;85.80;;;;;;5125014;28;20008;-43
2022/02/08 14:29:57;;;;;;;14.13;12.32;;;27.10;86.60;;;;;;5124241;28;20327;-51
2022/02/08 14:32:36;;;;;;;17.33;12.57;;;27.10;87.00;;;;;;5124263;28;20099;-54
2022/02/08 14:35:30;;;;;;;15.02;12.52;;;27.10;87.30;;;;;;5123779;28;20258;-55
2022/02/08 15:10:39;;;;;;;15.60;11.98;;;27.00;88.70;;;;;;5128293;28;20158;-51
2022/02/08 15:13:06;;;;;;;16.70;12.60;;;27.00;89.00;;;;;;5148230;27;20019;-46
2022/02/08 15:18:19;;;;;;;13.20;11.80;;;27.00;89.30;;;;;;5116370;27;20058;-48
2022/02/08 15:20:46;;;;;;;13.55;12.15;;;27.00;89.10;;;;;;5148517;27;20031;-54
2022/02/08 15:23:15;;;;;;;15.15;12.95;;;27.00;89.30;;;;;;5129871;27;20019;-56
2022/02/08 15:25:41;;;;;;;13.85;12.35;;;27.00;89.20;;;;;;5148161;27;20027;-55
2022/02/08 15:28:08;;;;;;;14.63;12.52;;;27.10;89.20;;;;;;5129882;27;20327;-45
2022/02/08 15:30:35;;;;;;;13.52;12.20;;;27.00;89.20;;;;;;5148219;27;20035;-46
2022/02/08 15:33:06;;;;;;;13.70;11.73;;;27.00;89.30;;;;;;5147842;27;20078;-47
2022/02/08 15:35:32;;;;;;;16.50;12.55;;;27.00;89.20;;;;;;5148197;27;20288;-51
2022/02/08 15:37:59;;;;;;;15.38;12.63;;;27.00;89.20;;;;;;5147696;27;20302;-51
2022/02/08 15:40:26;;;;;;;13.48;12.25;;;27.00;89.20;;;;;;5147957;27;20027;-46
2022/02/08 15:42:52;;;;;;;16.00;12.82;;;27.10;89.40;;;;;;5147983;27;20078;-54
2022/02/08 15:47:46;;;;;;;14.60;11.98;;;27.10;89.30;;;;;;5147814;27;20011;-50
2022/02/08 15:50:19;;;;;;;12.68;11.50;;;27.10;89.10;;;;;;5147713;27;20038;-44
2022/02/08 15:55:31;;;;;;;21.35;11.98;;;27.10;88.80;;;;;;5147548;27;20051;-52
2022/02/08 15:58:06;;;;;;;29.05;12.35;;;27.10;88.50;;;;;;5147490;27;20011;-46
2022/02/08 16:01:00;;;;;;;19.60;11.75;;;27.10;88.40;;;;;;5147663;27;20030;-46
2022/02/08 16:17:01;;;;;;;21.45;11.85;;;27.10;88.00;;;;;;5115001;27;20023;-46
2022/02/08 16:19:46;;;;;;;19.65;11.80;;;27.10;88.00;;;;;;5147049;27;20023;-53
2022/02/08 16:22:31;;;;;;;27.98;12.70;;;27.10;88.00;;;;;;5146841;27;20019;-52
2022/02/08 16:25:17;;;;;;;15.05;11.90;;;27.10;88.00;;;;;;5147151;27;20164;-52
2022/02/08 16:27:59;;;;;;;17.55;12.27;;;27.20;88.00;;;;;;5146723;27;20026;-51
2022/02/08 16:31:03;;;;;;;21.80;12.00;;;27.20;88.10;;;;;;5147100;27;20192;-51
2022/02/08 16:48:37;;;;;;;34.03;14.27;;;27.20;88.60;;;;;;5146538;27;20054;-54
2022/02/08 16:56:05;;;;;;;57.38;17.90;;;27.20;89.40;;;;;;5146553;27;20015;-50
2022/02/08 16:58:22;;;;;;;42.40;15.52;;;27.20;89.40;;;;;;5137928;27;20027;-46
2022/02/08 17:00:50;;;;;;;28.20;14.07;;;27.20;89.70;;;;;;5146400;27;20057;-56
2022/02/08 17:03:23;;;;;;;25.48;13.75;;;27.20;90.00;;;;;;5146472;27;20054;-51
2022/02/08 17:05:50;;;;;;;26.30;15.30;;;27.20;89.80;;;;;;5145661;27;20030;-44
2022/02/08 17:08:17;;;;;;;18.65;14.77;;;27.20;90.00;;;;;;5146209;27;20045;-46
2022/02/08 17:10:48;;;;;;;15.93;13.55;;;27.20;90.00;;;;;;5145929;27;20051;-49
2022/02/08 17:48:13;;;;;;;13.20;11.90;;;27.10;89.80;;;;;;5145506;27;20018;-50
2022/02/08 17:50:40;;;;;;;14.02;12.57;;;27.20;89.90;;;;;;5145668;27;20023;-49
2022/02/08 17:53:06;;;;;;;16.98;15.27;;;27.10;89.90;;;;;;5145164;27;20303;-46
2022/02/08 17:55:33;;;;;;;16.77;15.07;;;27.10;89.90;;;;;;5145759;27;20026;-51
2022/02/08 17:58:04;;;;;;;16.38;14.60;;;27.20;90.00;;;;;;5145429;27;20019;-48
2022/02/08 18:00:33;;;;;;;16.98;15.20;;;27.10;90.00;;;;;;5145645;27;20039;-51
2022/02/08 18:03:04;;;;;;;15.07;13.48;;;27.10;90.00;;;;;;5145339;27;20023;-46
2022/02/08 18:05:31;;;;;;;16.10;12.95;;;27.10;90.00;;;;;;5145545;28;20023;-48
2022/02/08 18:07:58;;;;;;;14.32;13.02;;;27.10;90.00;;;;;;5145321;28;20090;-54
2022/02/08 18:10:26;;;;;;;16.83;14.73;;;27.10;90.00;;;;;;5145125;28;20035;-49
2022/02/08 18:12:56;;;;;;;18.25;16.35;;;27.20;90.10;;;;;;5144837;28;20367;-47
2022/02/08 18:15:25;;;;;;;16.90;14.73;;;27.10;90.00;;;;;;5145383;28;20023;-48
2022/02/08 18:17:55;;;;;;;15.73;14.23;;;27.10;90.10;;;;;;5148172;27;20018;-55
2022/02/08 18:20:30;;;;;;;16.05;13.60;;;27.10;90.10;;;;;;5130895;27;20035;-48
2022/02/08 18:50:49;;;;;;;18.65;12.55;;;27.00;90.40;;;;;;5148893;27;20025;-53
2022/02/08 18:56:18;;;;;;;16.73;11.60;;;27.00;90.40;;;;;;5149152;27;20064;-49
2022/02/08 19:20:12;;;;;;;13.40;11.15;;;27.00;90.60;;;;;;5148436;27;20031;-54
2022/02/08 19:22:39;;;;;;;13.00;11.65;;;27.00;90.60;;;;;;5148941;27;20083;-55
2022/02/08 19:25:06;;;;;;;12.30;11.00;;;27.00;90.80;;;;;;5148483;27;20023;-50
2022/02/08 19:27:34;;;;;;;12.07;10.80;;;27.00;90.70;;;;;;5148023;27;20018;-45
2022/02/08 19:30:01;;;;;;;15.00;11.43;;;26.90;90.80;;;;;;5147646;27;20015;-50
2022/02/08 19:32:28;;;;;;;11.63;10.52;;;26.90;90.70;;;;;;5148221;27;20050;-59
2022/02/08 19:34:55;;;;;;;13.85;10.52;;;26.90;90.60;;;;;;5147955;27;20029;-47
2022/02/08 19:37:23;;;;;;;10.68;9.60;;;27.00;90.60;;;;;;5147896;27;20051;-52
2022/02/08 19:39:50;;;;;;;11.48;9.57;;;26.90;90.60;;;;;;5148196;27;20019;-51
2022/02/08 19:42:17;;;;;;;10.02;8.98;;;26.90;90.60;;;;;;5147715;27;20015;-47
2022/02/08 19:44:53;;;;;;;9.68;7.90;;;26.90;90.60;;;;;;5146582;27;20020;-50
2022/02/08 19:47:19;;;;;;;10.30;7.97;;;26.90;90.60;;;;;;5147830;27;20078;-46
2022/02/08 19:49:46;;;;;;;10.30;8.07;;;26.90;90.60;;;;;;5147621;27;20038;-50
2022/02/08 19:52:12;;;;;;;9.70;8.10;;;26.90;90.60;;;;;;5147764;27;20082;-49
2022/02/08 19:54:55;;;;;;;11.73;8.20;;;26.90;90.50;;;;;;5147805;27;20064;-50
2022/02/08 19:57:25;;;;;;;11.20;8.27;;;26.90;90.40;;;;;;5147506;27;20123;-48
2022/02/08 19:59:52;;;;;;;11.95;8.40;;;26.90;90.30;;;;;;5147675;27;20026;-50
2022/02/08 20:02:22;;;;;;;10.88;8.27;;;26.90;90.30;;;;;;5147286;27;20023;-50
2022/02/08 20:04:49;;;;;;;13.15;8.88;;;26.90;90.30;;;;;;5147734;27;20019;-52
2022/02/08 20:07:16;;;;;;;10.98;8.80;;;26.90;90.20;;;;;;5147661;27;20044;-49
2022/02/08 20:09:44;;;;;;;9.98;8.95;;;26.90;90.20;;;;;;5128924;27;20030;-47
2022/02/08 20:12:10;;;;;;;9.55;8.52;;;26.80;90.20;;;;;;5147332;27;20039;-52
2022/02/08 20:14:37;;;;;;;9.77;7.88;;;26.80;90.20;;;;;;5147560;27;20031;-52
2022/02/08 20:17:04;;;;;;;10.30;7.80;;;26.80;90.20;;;;;;5147245;27;20015;-48
2022/02/08 20:19:30;;;;;;;8.70;7.80;;;26.80;90.10;;;;;;5147209;27;20023;-49
2022/02/08 20:22:04;;;;;;;10.90;7.82;;;26.80;90.20;;;;;;5147217;27;20018;-49
2022/02/08 20:24:31;;;;;;;12.63;7.82;;;26.80;90.20;;;;;;5146868;27;20094;-48
2022/02/08 20:29:35;;;;;;;10.50;8.70;;;26.80;90.50;;;;;;5144298;27;20019;-45
2022/02/08 20:32:02;;;;;;;13.13;9.35;;;26.80;90.80;;;;;;5112284;28;20043;-47
2022/02/08 20:34:30;;;;;;;10.55;9.38;;;26.70;90.90;;;;;;5142563;27;20027;-51
2022/02/08 20:36:59;;;;;;;10.38;8.88;;;26.70;91.20;;;;;;5146392;27;20325;-45
2022/02/08 20:39:27;;;;;;;10.40;9.18;;;26.70;91.10;;;;;;5146456;27;20308;-48
2022/02/08 20:41:55;;;;;;;9.95;8.93;;;26.70;91.10;;;;;;5127502;27;20090;-47
2022/02/08 20:44:23;;;;;;;9.38;8.45;;;26.70;91.20;;;;;;5146521;27;20022;-44
2022/02/08 20:47:33;;;;;;;9.05;8.15;;;26.70;91.30;;;;;;5146646;27;20072;-51
2022/02/08 20:49:39;;;;;;;8.98;8.18;;;26.70;91.40;;;;;;5140296;27;20027;-49
2022/02/08 20:52:06;;;;;;;8.48;7.57;;;26.60;91.70;;;;;;5146330;27;20338;-51
2022/02/08 20:54:38;;;;;;;10.98;7.22;;;26.60;91.80;;;;;;5146524;27;20019;-46
2022/02/08 20:57:12;;;;;;;7.97;7.18;;;26.60;91.80;;;;;;5146249;27;20060;-46
2022/02/08 20:59:38;;;;;;;8.07;6.47;;;26.60;91.70;;;;;;5140715;27;20064;-51
2022/02/08 21:02:05;;;;;;;7.47;5.90;;;26.60;91.70;;;;;;5133518;27;20015;-44